createdAt,value
2023-04-22T02:21:56.464Z,100.00
2023-04-22T02:27:00.230Z,100.00
2023-04-22T02:32:03.402Z,100.00
2023-04-22T02:37:07.694Z,100.00
2023-04-22T02:42:10.606Z,100.00
2023-04-22T02:47:13.341Z,100.00
2023-04-22T02:52:17.740Z,100.00
2023-04-22T02:57:20.987Z,100.00
2023-04-22T03:02:24.077Z,100.00
2023-04-22T03:07:42.242Z,100.00
2023-04-22T03:12:44.982Z,100.00
2023-04-22T03:17:48.403Z,100.00
2023-04-22T03:22:53.099Z,100.00
2023-04-22T03:27:56.951Z,100.00
2023-04-22T03:33:01.215Z,100.00
2023-04-22T03:38:15.885Z,100.00
2023-04-22T03:43:18.872Z,100.00
2023-04-22T03:48:35.497Z,100.00
2023-04-22T03:53:43.628Z,100.00
2023-04-22T03:58:52.160Z,100.00
2023-04-22T04:03:55.188Z,100.00
2023-04-22T04:09:01.713Z,100.00
2023-04-22T04:14:05.268Z,100.00
2023-04-22T04:19:16.513Z,100.00
2023-04-22T04:24:20.839Z,100.00
2023-04-22T04:29:27.020Z,100.00
2023-04-22T04:34:42.541Z,100.00
2023-04-22T04:39:48.508Z,100.00
2023-04-22T04:44:52.178Z,100.00
2023-04-22T04:49:58.550Z,100.00
2023-04-22T04:55:02.944Z,100.00
2023-04-22T05:00:10.581Z,100.00
2023-04-22T05:05:14.267Z,100.00
2023-04-22T05:10:20.655Z,100.00
2023-04-22T05:15:23.832Z,100.00
2023-04-22T05:20:27.381Z,100.00
2023-04-22T05:25:31.809Z,100.00
2023-04-22T05:30:40.316Z,100.00
2023-04-22T05:35:44.491Z,100.00
2023-04-22T05:40:49.002Z,100.00
2023-04-22T05:45:52.665Z,100.00
2023-04-22T05:50:56.831Z,100.00
2023-04-22T05:56:02.569Z,100.00
2023-04-22T06:01:05.799Z,100.00
2023-04-22T06:06:28.604Z,100.00
2023-04-22T06:11:32.920Z,100.00
2023-04-22T06:16:35.815Z,100.00
2023-04-22T06:21:42.105Z,100.00
2023-04-22T06:26:46.309Z,100.00
2023-04-22T06:31:49.163Z,100.00
2023-04-22T06:36:54.783Z,100.00
2023-04-22T06:41:59.816Z,100.00
2023-04-22T06:47:23.361Z,100.00
2023-04-22T06:52:43.539Z,100.00
2023-04-22T06:57:47.773Z,100.00
2023-04-22T07:02:50.630Z,100.00
2023-04-22T07:07:53.641Z,100.00
2023-04-22T07:13:00.464Z,100.00
2023-04-22T07:18:03.174Z,100.00
2023-04-22T07:23:06.105Z,100.00
2023-04-22T07:28:10.318Z,100.00
2023-04-22T07:33:13.001Z,100.00
2023-04-22T07:38:17.750Z,100.00
2023-04-22T07:43:21.828Z,100.00
2023-04-22T07:48:24.558Z,100.00
2023-04-22T07:53:27.339Z,100.00
2023-04-22T07:58:31.556Z,100.00
2023-04-22T08:03:34.658Z,100.00
2023-04-22T08:08:37.629Z,100.00
2023-04-22T08:13:41.752Z,100.00
2023-04-22T08:18:44.548Z,100.00
2023-04-22T08:23:47.872Z,98.85
2023-04-22T08:28:52.025Z,100.00
2023-04-22T08:33:54.819Z,96.75
2023-04-22T08:38:57.598Z,91.06
2023-04-22T08:44:02.167Z,93.49
2023-04-22T08:49:05.429Z,84.59
2023-04-22T08:54:08.285Z,88.26
2023-04-22T08:59:13.828Z,86.73
2023-04-22T09:04:18.687Z,71.11
2023-04-22T09:09:21.998Z,67.24
2023-04-22T09:14:26.967Z,69.29
2023-04-22T09:19:29.694Z,60.68
2023-04-22T09:24:32.627Z,60.30
2023-04-22T09:29:37.224Z,60.85
2023-04-22T09:34:51.875Z,59.56
2023-04-22T09:39:55.513Z,59.13
2023-04-22T09:45:01.952Z,59.22
2023-04-22T09:50:05.559Z,57.07
2023-04-22T09:55:10.239Z,59.01
2023-04-22T10:00:17.369Z,59.99
2023-04-22T10:05:20.775Z,59.06
2023-04-22T10:10:25.302Z,54.82
2023-04-22T10:15:34.262Z,53.92
2023-04-22T10:20:38.836Z,54.77
2023-04-22T10:25:42.073Z,54.33
2023-04-22T10:30:46.181Z,54.01
2023-04-22T10:36:07.975Z,54.62
2023-04-22T10:41:15.320Z,53.88
2023-04-22T10:47:00.174Z,53.57
2023-04-22T10:52:04.992Z,52.70
2023-04-22T10:57:10.226Z,53.67
2023-04-22T11:02:15.965Z,53.11
2023-04-22T11:07:32.029Z,51.11
2023-04-22T11:12:44.900Z,49.85
2023-04-22T11:17:51.902Z,49.88
2023-04-22T11:22:56.874Z,50.41
2023-04-22T11:28:00.468Z,48.49
2023-04-22T11:33:04.899Z,48.59
2023-04-22T11:38:08.777Z,49.03
2023-04-22T11:43:12.243Z,51.59
2023-04-22T11:48:16.714Z,49.84
2023-04-22T11:53:21.437Z,49.35
2023-04-22T11:58:28.123Z,47.79
2023-04-22T12:03:35.949Z,48.21
2023-04-22T12:08:42.523Z,47.57
2023-04-22T12:13:46.806Z,45.80
2023-04-22T12:18:53.009Z,45.46
2023-04-22T12:23:59.287Z,44.01
2023-04-22T12:29:02.083Z,44.25
2023-04-22T12:34:06.532Z,47.02
2023-04-22T12:39:10.608Z,47.45
2023-04-22T12:44:13.606Z,47.39
2023-04-22T12:49:17.876Z,48.08
2023-04-22T12:54:20.977Z,50.94
2023-04-22T12:59:24.096Z,51.53
2023-04-22T13:04:28.739Z,52.82
2023-04-22T13:09:31.999Z,53.65
2023-04-22T13:14:34.744Z,53.81
2023-04-22T13:19:39.148Z,53.89
2023-04-22T13:24:42.151Z,54.04
2023-04-22T13:29:45.424Z,55.42
2023-04-22T13:34:50.112Z,54.38
2023-04-22T13:39:52.834Z,54.79
2023-04-22T13:44:56.741Z,54.69
2023-04-22T13:50:01.985Z,54.98
2023-04-22T13:55:05.424Z,54.91
2023-04-22T14:00:10.148Z,55.79
2023-04-22T14:05:16.331Z,56.08
2023-04-22T14:10:20.452Z,56.72
2023-04-22T14:15:24.250Z,56.75
2023-04-22T14:20:28.697Z,58.09
2023-04-22T14:25:31.459Z,60.62
2023-04-22T14:30:34.930Z,63.10
2023-04-22T14:35:39.982Z,65.60
2023-04-22T14:40:43.023Z,66.73
2023-04-22T14:45:47.215Z,67.54
2023-04-22T14:50:51.563Z,66.82
2023-04-22T14:55:55.722Z,66.49
2023-04-22T15:00:59.697Z,67.13
2023-04-22T15:06:04.049Z,66.09
2023-04-22T15:11:07.815Z,65.59
2023-04-22T15:16:10.615Z,65.44
2023-04-22T15:21:14.762Z,65.56
2023-04-22T15:26:17.730Z,65.52
2023-04-22T15:31:21.944Z,65.85
2023-04-22T15:36:26.017Z,65.13
2023-04-22T15:41:28.774Z,66.91
2023-04-22T15:46:33.321Z,66.91
2023-04-22T15:51:38.137Z,66.86
2023-04-22T15:56:40.930Z,67.25
2023-04-22T16:01:46.148Z,65.45
2023-04-22T16:06:51.654Z,61.47
2023-04-22T16:11:56.105Z,62.52
2023-04-22T16:16:59.346Z,62.79
2023-04-22T16:22:03.803Z,65.29
2023-04-22T16:27:06.768Z,67.57
2023-04-22T16:32:09.484Z,68.48
2023-04-22T16:37:13.616Z,70.10
2023-04-22T16:42:16.431Z,70.49
2023-04-22T16:47:19.214Z,72.41
2023-04-22T16:52:24.224Z,73.87
2023-04-22T16:57:27.206Z,74.16
2023-04-22T17:02:30.861Z,73.70
2023-04-22T17:07:36.921Z,74.06
2023-04-22T17:12:40.044Z,75.30
2023-04-22T17:17:42.874Z,76.76
2023-04-22T17:22:47.201Z,78.04
2023-04-22T17:27:51.156Z,77.19
2023-04-22T17:32:53.933Z,78.73
2023-04-22T17:37:58.348Z,77.37
2023-04-22T17:43:01.265Z,81.49
2023-04-22T17:48:04.210Z,81.00
2023-04-22T17:53:09.545Z,81.03
2023-04-22T17:58:12.999Z,82.28
2023-04-22T18:03:16.935Z,82.33
2023-04-22T18:08:21.213Z,82.76
2023-04-22T18:13:24.912Z,83.47
2023-04-22T18:18:28.122Z,83.92
2023-04-22T18:23:32.298Z,86.29
2023-04-22T18:28:37.465Z,87.58
2023-04-22T18:33:40.597Z,92.81
2023-04-22T18:38:45.403Z,95.72
2023-04-22T18:43:48.482Z,97.16
2023-04-22T18:48:51.960Z,97.11
2023-04-22T18:53:56.443Z,97.19
2023-04-22T18:58:59.816Z,99.03
2023-04-22T19:04:04.405Z,100.00
2023-04-22T19:09:09.309Z,100.00
2023-04-22T19:14:13.717Z,100.00
2023-04-22T19:19:16.737Z,100.00
2023-04-22T19:24:21.467Z,100.00
2023-04-22T19:29:24.239Z,100.00
2023-04-22T19:34:28.666Z,100.00
2023-04-22T19:39:32.915Z,100.00
2023-04-22T19:44:36.341Z,100.00
2023-04-22T19:49:40.984Z,100.00
2023-04-22T19:54:48.074Z,100.00
2023-04-22T19:59:52.037Z,100.00
2023-04-22T20:04:55.199Z,100.00
2023-04-22T20:10:01.002Z,100.00
2023-04-22T20:15:05.309Z,100.00
2023-04-22T20:20:15.159Z,100.00
2023-04-22T20:25:20.343Z,100.00
2023-04-22T20:30:23.246Z,100.00
2023-04-22T20:35:26.670Z,100.00
2023-04-22T20:40:31.689Z,100.00
2023-04-22T20:45:34.455Z,100.00
2023-04-22T20:50:38.147Z,100.00
2023-04-22T20:55:42.350Z,100.00
2023-04-22T21:00:46.087Z,100.00
2023-04-22T21:05:49.481Z,100.00
2023-04-22T21:10:55.404Z,100.00
2023-04-22T21:16:00.224Z,100.00
2023-04-22T21:21:04.263Z,100.00
2023-04-22T21:26:10.057Z,100.00
2023-04-22T21:31:13.779Z,100.00
2023-04-22T21:36:16.760Z,100.00
2023-04-22T21:41:20.921Z,100.00
2023-04-22T21:46:24.409Z,100.00
2023-04-22T21:51:28.016Z,100.00
2023-04-22T21:56:33.511Z,100.00
2023-04-22T22:01:36.437Z,100.00
2023-04-22T22:06:39.239Z,100.00
2023-04-22T22:11:43.737Z,100.00
2023-04-22T22:16:46.985Z,100.00
2023-04-22T22:21:50.068Z,100.00
2023-04-22T22:26:54.183Z,100.00
2023-04-22T22:31:57.079Z,100.00
2023-04-22T22:37:00.167Z,100.00
2023-04-22T22:42:04.399Z,100.00
2023-04-22T22:47:08.406Z,100.00
2023-04-22T22:52:11.730Z,100.00
2023-04-22T22:57:16.242Z,100.00
2023-04-22T23:02:19.273Z,100.00
2023-04-22T23:07:22.378Z,100.00
2023-04-22T23:12:26.628Z,100.00
2023-04-22T23:17:29.613Z,100.00
2023-04-22T23:22:34.582Z,100.00
2023-04-22T23:27:39.343Z,100.00
2023-04-22T23:32:44.015Z,100.00
2023-04-22T23:37:47.676Z,100.00
2023-04-22T23:42:51.838Z,100.00
2023-04-22T23:47:54.856Z,100.00
2023-04-22T23:52:58.002Z,100.00
2023-04-22T23:58:02.589Z,100.00
